Time;durP1;ratioP1;P1;durP2;ratioP2;P2;SDS_P1;SDS_P2;PMS_P1;PMS_P2;Temp;Humidity;BMP_temperature;BMP_pressure;BME280_temperature;BME280_humidity;BME280_pressure;Samples;Min_cycle;Max_cycle;Signal;HPM_P1;HPM_P2
2022/07/07 00:00:03;;;;;;;4.30;2.97;;;;;;;19.54;68.91;94612.69;4993933;28;20201;-75
2022/07/07 00:02:30;;;;;;;2.85;2.40;;;;;;;19.46;69.02;94611.03;4993537;28;20206;-74
2022/07/07 00:04:57;;;;;;;3.50;2.65;;;;;;;19.51;68.88;94602.47;4993049;28;20816;-78
2022/07/07 00:07:24;;;;;;;2.58;2.35;;;;;;;19.52;68.98;94604.06;4992168;28;20236;-74
2022/07/07 00:09:51;;;;;;;3.00;2.67;;;;;;;19.52;68.90;94604.84;4992826;28;20249;-74
2022/07/07 00:12:18;;;;;;;4.90;2.92;;;;;;;19.52;68.95;94610.34;4993133;28;20210;-76
2022/07/07 00:14:46;;;;;;;2.55;1.98;;;;;;;19.47;69.17;94612.63;4993099;28;20229;-76
2022/07/07 00:17:13;;;;;;;2.78;2.45;;;;;;;19.42;69.41;94610.22;4993111;28;20210;-75
2022/07/07 00:19:40;;;;;;;2.83;2.40;;;;;;;19.44;69.35;94613.38;4992929;28;20225;-77
2022/07/07 00:22:07;;;;;;;3.83;3.28;;;;;;;19.43;68.92;94609.06;4992249;28;20951;-74
2022/07/07 00:24:33;;;;;;;3.15;2.67;;;;;;;19.51;68.68;94614.25;4993076;28;20206;-76
2022/07/07 00:27:00;;;;;;;2.72;1.65;;;;;;;19.52;68.53;94615.03;4993293;28;20213;-75
2022/07/07 00:29:27;;;;;;;3.35;2.65;;;;;;;19.42;68.80;94611.00;4993053;28;20635;-74
2022/07/07 00:31:55;;;;;;;2.67;2.20;;;;;;;19.39;68.73;94616.50;4993046;28;20205;-75
2022/07/07 00:34:22;;;;;;;3.00;2.40;;;;;;;19.34;69.05;94614.13;4992500;28;20311;-75
2022/07/07 00:36:49;;;;;;;3.55;3.00;;;;;;;19.35;69.04;94621.97;4993184;28;20205;-76
2022/07/07 00:39:16;;;;;;;2.75;2.38;;;;;;;19.31;69.10;94620.38;4992664;28;20233;-77
2022/07/07 00:41:42;;;;;;;8.63;3.15;;;;;;;19.30;68.66;94624.28;4992800;28;20225;-76
2022/07/07 00:44:12;;;;;;;2.50;1.83;;;;;;;19.31;68.40;94620.38;4992671;28;20248;-76
2022/07/07 00:46:44;;;;;;;3.63;2.88;;;;;;;19.29;68.72;94623.50;4992429;28;20216;-77
2022/07/07 00:49:13;;;;;;;3.30;2.58;;;;;;;19.24;68.41;94620.34;4992425;28;20205;-76
2022/07/07 00:51:42;;;;;;;2.88;2.08;;;;;;;19.26;68.41;94618.00;4992345;28;20672;-76
2022/07/07 00:54:10;;;;;;;5.22;2.42;;;;;;;19.12;68.71;94614.00;4992457;28;20271;-76
2022/07/07 00:56:37;;;;;;;2.08;1.73;;;;;;;19.12;68.13;94618.69;4992806;28;20209;-74
2022/07/07 00:59:07;;;;;;;2.83;2.35;;;;;;;19.14;68.63;94628.09;4992285;28;20259;-77
2022/07/07 01:01:36;;;;;;;3.58;2.33;;;;;;;19.06;68.33;94626.50;4992733;28;20202;-73
2022/07/07 01:04:03;;;;;;;3.47;2.35;;;;;;;19.12;68.01;94619.50;4992398;28;20600;-74
2022/07/07 01:06:32;;;;;;;3.42;2.35;;;;;;;19.08;68.03;94623.38;4991617;28;20288;-77
2022/07/07 01:09:00;;;;;;;2.47;1.83;;;;;;;19.04;68.36;94612.34;4991908;28;20296;-76
2022/07/07 01:11:28;;;;;;;2.28;1.90;;;;;;;18.98;68.44;94624.88;4992096;28;20201;-75
2022/07/07 01:13:55;;;;;;;1.38;1.27;;;;;;;19.05;67.78;94635.09;4991721;28;20704;-74
2022/07/07 01:16:21;;;;;;;2.00;1.77;;;;;;;19.04;67.69;94628.81;4991924;28;20793;-76
2022/07/07 01:18:48;;;;;;;2.58;2.03;;;;;;;19.05;67.57;94627.66;4992068;28;20701;-72
2022/07/07 01:21:19;;;;;;;3.35;2.22;;;;;;;19.00;67.97;94627.22;4991978;28;20276;-74
2022/07/07 01:23:47;;;;;;;2.08;1.85;;;;;;;18.97;67.98;94623.28;4991856;28;20249;-74
2022/07/07 01:26:14;;;;;;;2.65;1.77;;;;;;;18.95;67.78;94631.13;4991272;28;20260;-74
2022/07/07 01:28:42;;;;;;;1.55;1.45;;;;;;;18.96;67.52;94621.72;4991570;28;20206;-75
2022/07/07 01:31:09;;;;;;;1.45;1.35;;;;;;;18.92;67.49;94623.63;4991446;28;20218;-75
2022/07/07 01:33:36;;;;;;;2.22;1.50;;;;;;;18.86;67.63;94616.91;4991032;28;20246;-75
2022/07/07 01:36:04;;;;;;;1.88;1.65;;;;;;;18.86;67.92;94633.38;4991780;28;20206;-75
2022/07/07 01:38:31;;;;;;;3.00;2.15;;;;;;;18.81;68.11;94631.78;4991674;28;20217;-75
2022/07/07 01:40:59;;;;;;;2.88;2.08;;;;;;;18.80;67.46;94621.19;4991450;28;20202;-74
2022/07/07 01:43:26;;;;;;;2.65;2.05;;;;;;;18.77;67.66;94620.00;4991494;28;20260;-74
2022/07/07 01:45:52;;;;;;;2.28;1.80;;;;;;;18.73;67.58;94621.13;4991121;28;20657;-75
2022/07/07 01:48:19;;;;;;;1.75;1.60;;;;;;;18.62;67.78;94614.75;4978864;28;20213;-77
2022/07/07 01:50:46;;;;;;;2.70;1.27;;;;;;;18.67;67.35;94617.16;4991689;28;20205;-75
2022/07/07 01:53:13;;;;;;;3.13;1.70;;;;;;;18.68;67.31;94616.00;4978293;28;20680;-76
2022/07/07 01:55:40;;;;;;;2.85;1.52;;;;;;;18.68;67.26;94616.00;4991331;28;20244;-73
2022/07/07 01:58:08;;;;;;;1.67;1.30;;;;;;;18.63;67.27;94619.88;4991587;28;20206;-76
2022/07/07 02:00:35;;;;;;;2.90;1.90;;;;;;;18.60;67.34;94614.34;4990726;28;20202;-76
2022/07/07 02:03:01;;;;;;;1.42;1.15;;;;;;;18.60;66.97;94615.13;4991779;28;20264;-75
2022/07/07 02:05:28;;;;;;;1.40;1.13;;;;;;;18.64;66.36;94610.47;4991469;28;20240;-73
2022/07/07 02:07:55;;;;;;;2.42;1.60;;;;;;;18.68;66.11;94610.50;4991425;28;20205;-77
2022/07/07 02:13:03;;;;;;;1.38;1.27;;;;;;;18.79;65.65;94612.16;4990895;28;20256;-73
2022/07/07 02:15:31;;;;;;;3.08;1.63;;;;;;;18.73;66.03;94607.41;4990606;28;20229;-76
2022/07/07 02:17:58;;;;;;;3.30;1.55;;;;;;;18.63;66.09;94602.63;4991079;28;20209;-74
2022/07/07 02:20:25;;;;;;;2.25;1.52;;;;;;;18.66;65.71;94607.34;4991563;28;20214;-74
2022/07/07 02:22:52;;;;;;;1.40;1.25;;;;;;;18.64;65.99;94609.69;4990992;28;20691;-73
2022/07/07 02:25:19;;;;;;;1.88;1.38;;;;;;;18.61;66.22;94615.91;4991455;28;20296;-77
2022/07/07 02:27:46;;;;;;;2.22;1.35;;;;;;;18.59;66.17;94618.25;4991499;28;20692;-77
2022/07/07 02:30:13;;;;;;;1.95;0.40;;;;;;;18.61;65.91;94621.41;4991293;28;20202;-73
2022/07/07 02:32:41;;;;;;;3.60;1.25;;;;;;;18.56;65.94;94624.50;4991326;28;20233;-75
2022/07/07 02:35:09;;;;;;;2.83;1.73;;;;;;;18.54;66.05;94621.34;4990471;28;20229;-74
2022/07/07 02:37:36;;;;;;;1.38;1.08;;;;;;;18.52;66.13;94629.16;4990415;28;20293;-74
2022/07/07 02:40:03;;;;;;;1.48;1.35;;;;;;;18.46;66.37;94626.75;4991241;28;20201;-74
2022/07/07 02:42:30;;;;;;;1.75;1.40;;;;;;;18.45;66.37;94619.66;4991310;28;20206;-74
2022/07/07 02:44:57;;;;;;;2.38;1.35;;;;;;;18.41;66.58;94623.56;4990873;28;20297;-74
2022/07/07 02:47:24;;;;;;;1.88;1.30;;;;;;;18.41;66.43;94629.06;4991195;28;20214;-74
2022/07/07 02:49:52;;;;;;;1.65;1.40;;;;;;;18.35;66.72;94625.84;4990796;28;20612;-75
2022/07/07 02:52:19;;;;;;;2.00;1.50;;;;;;;18.41;66.37;94627.09;4990682;28;20206;-74
2022/07/07 02:54:46;;;;;;;2.70;1.60;;;;;;;18.50;65.87;94631.47;4990358;28;20240;-76
2022/07/07 02:57:13;;;;;;;1.33;1.10;;;;;;;18.44;66.15;94623.59;4991554;28;20210;-75
2022/07/07 02:59:39;;;;;;;1.27;1.15;;;;;;;18.46;65.82;94626.75;4990920;28;20656;-74
2022/07/07 03:02:06;;;;;;;1.30;1.20;;;;;;;18.43;65.77;94627.50;4990866;28;20716;-76
2022/07/07 03:04:33;;;;;;;1.25;1.02;;;;;;;18.48;65.71;94634.59;4991244;28;20209;-75
2022/07/07 03:07:01;;;;;;;1.55;1.27;;;;;;;18.45;65.79;94625.16;4990838;28;20691;-75
2022/07/07 03:09:28;;;;;;;2.10;1.50;;;;;;;18.52;65.30;94629.16;4990813;28;20237;-76
2022/07/07 03:11:55;;;;;;;5.65;1.10;;;;;;;18.51;65.65;94630.31;4991434;28;20272;-74
2022/07/07 03:14:22;;;;;;;1.90;1.20;;;;;;;18.43;65.80;94638.47;4994002;28;20783;-75
2022/07/07 03:16:48;;;;;;;1.75;1.27;;;;;;;18.77;64.77;94641.94;4994379;28;20260;-75
2022/07/07 03:19:15;;;;;;;1.58;0.90;;;;;;;19.26;63.08;94639.97;4994339;28;20315;-76
2022/07/07 03:21:42;;;;;;;1.40;1.30;;;;;;;19.71;62.01;94627.69;4994021;28;20673;-76
2022/07/07 03:24:10;;;;;;;1.77;1.27;;;;;;;20.22;60.64;94624.75;4994276;28;20661;-75
2022/07/07 03:26:37;;;;;;;1.48;1.23;;;;;;;20.24;59.62;94633.38;4993702;28;20685;-74
2022/07/07 03:29:04;;;;;;;1.40;1.27;;;;;;;20.37;59.44;94629.13;4994200;28;20768;-75
2022/07/07 03:31:31;;;;;;;3.58;1.50;;;;;;;20.97;57.92;94630.38;4994203;28;20224;-77
2022/07/07 03:33:58;;;;;;;2.15;1.55;;;;;;;21.42;56.80;94612.25;4993758;28;20233;-74
2022/07/07 03:36:25;;;;;;;2.30;1.70;;;;;;;21.33;56.71;94628.38;4993702;28;20256;-74
2022/07/07 03:38:52;;;;;;;2.53;1.85;;;;;;;21.60;55.80;94624.00;4993871;28;20205;-75
2022/07/07 03:41:20;;;;;;;1.63;1.45;;;;;;;21.33;56.33;94625.63;4993907;28;20257;-77
2022/07/07 03:43:47;;;;;;;1.52;1.30;;;;;;;21.64;55.33;94624.78;4993693;28;20575;-74
2022/07/07 03:46:14;;;;;;;2.28;1.80;;;;;;;22.09;54.65;94622.28;4993507;28;20672;-75
2022/07/07 03:48:41;;;;;;;1.60;1.40;;;;;;;22.58;53.04;94633.06;4993480;28;20213;-76
2022/07/07 03:51:08;;;;;;;1.50;1.25;;;;;;;23.92;49.97;94619.25;4993588;28;20297;-75
2022/07/07 03:53:35;;;;;;;1.05;0.95;;;;;;;23.36;50.63;94629.72;4993716;28;20296;-76
2022/07/07 03:56:02;;;;;;;1.48;1.38;;;;;;;24.21;48.36;94630.00;4993623;28;20277;-74
2022/07/07 03:58:30;;;;;;;18.08;10.02;;;;;;;24.18;48.52;94630.84;4993646;28;20202;-77
2022/07/07 04:00:59;;;;;;;1.70;1.60;;;;;;;23.21;50.67;94633.81;4993603;28;20205;-75
2022/07/07 04:03:26;;;;;;;1.80;1.50;;;;;;;22.27;52.88;94631.28;4993421;28;20653;-73
2022/07/07 04:05:53;;;;;;;1.70;1.55;;;;;;;21.96;53.58;94622.72;4993411;28;20217;-72
2022/07/07 04:08:20;;;;;;;1.70;1.55;;;;;;;22.96;52.28;94636.00;4993444;28;20252;-77
2022/07/07 04:10:47;;;;;;;2.30;1.58;;;;;;;23.07;50.90;94636.69;4993374;28;20201;-72
2022/07/07 04:13:14;;;;;;;1.85;1.40;;;;;;;24.00;48.48;94626.31;4993498;28;20206;-75
2022/07/07 04:15:42;;;;;;;2.25;1.60;;;;;;;23.95;48.67;94626.75;4992851;28;20233;-76
2022/07/07 04:18:09;;;;;;;1.80;1.50;;;;;;;23.70;49.24;94623.47;4993382;28;20226;-76
2022/07/07 04:20:36;;;;;;;6.93;2.28;;;;;;;24.71;47.79;94619.84;4992336;28;20276;-77
2022/07/07 04:23:02;;;;;;;2.47;1.50;;;;;;;24.25;48.45;94630.78;4992920;28;20205;-77
2022/07/07 04:25:29;;;;;;;1.60;1.50;;;;;;;23.46;49.17;94636.34;4992826;28;20206;-75
2022/07/07 04:27:56;;;;;;;1.48;1.30;;;;;;;24.27;48.13;94623.63;4993044;28;20201;-80
2022/07/07 04:30:23;;;;;;;1.35;1.20;;;;;;;24.86;46.36;94625.19;4991734;28;20653;-78
2022/07/07 04:32:51;;;;;;;1.75;1.60;;;;;;;25.59;44.79;94624.38;4992919;28;20234;-77
2022/07/07 04:35:18;;;;;;;1.60;1.30;;;;;;;26.06;44.23;94622.31;4992872;28;20233;-78
2022/07/07 04:37:45;;;;;;;1.60;1.50;;;;;;;25.76;44.26;94626.06;4993081;28;20572;-79
2022/07/07 04:40:12;;;;;;;1.88;1.48;;;;;;;26.76;42.78;94628.38;4993056;28;20205;-77
2022/07/07 04:42:39;;;;;;;2.05;1.40;;;;;;;25.84;43.12;94621.94;4993164;28;20201;-75
2022/07/07 04:45:07;;;;;;;1.70;1.60;;;;;;;26.13;43.72;94634.06;4992428;28;20636;-78
2022/07/07 04:47:39;;;;;;;1.77;1.60;;;;;;;24.73;46.44;94634.06;4992421;28;20233;-76
2022/07/07 04:50:08;;;;;;;1.40;1.30;;;;;;;23.87;47.56;94643.84;4992861;28;20257;-78
2022/07/07 04:52:35;;;;;;;1.80;1.60;;;;;;;24.85;46.69;94634.69;4992831;28;20213;-78
2022/07/07 04:55:02;;;;;;;2.10;1.55;;;;;;;26.58;42.79;94624.41;4992303;28;20779;-77
2022/07/07 04:57:29;;;;;;;1.70;1.38;;;;;;;26.51;42.71;94630.94;4992929;28;20256;-78
2022/07/07 04:59:56;;;;;;;1.67;1.58;;;;;;;25.44;44.33;94634.94;4992568;28;20209;-76
2022/07/07 05:02:22;;;;;;;1.63;1.50;;;;;;;25.77;43.88;94635.97;4992760;28;20205;-77
2022/07/07 05:04:50;;;;;;;1.77;1.67;;;;;;;25.80;43.56;94632.34;4992208;28;20206;-75
2022/07/07 05:07:19;;;;;;;2.25;1.70;;;;;;;26.38;43.57;94625.22;4992179;28;20270;-78
2022/07/07 05:09:46;;;;;;;1.63;1.52;;;;;;;27.36;41.75;94623.38;4992364;28;20268;-78
2022/07/07 05:12:13;;;;;;;1.38;1.27;;;;;;;27.00;41.07;94622.69;4992338;28;20472;-78
2022/07/07 05:14:39;;;;;;;2.03;1.48;;;;;;;26.59;42.37;94621.22;4992050;28;20210;-75
2022/07/07 05:17:06;;;;;;;2.42;1.50;;;;;;;27.27;40.37;94614.88;4992257;28;20309;-76
2022/07/07 05:19:33;;;;;;;1.33;1.23;;;;;;;26.03;42.83;94623.94;4992235;28;20233;-76
2022/07/07 05:22:00;;;;;;;1.50;1.40;;;;;;;25.44;44.83;94624.63;4991739;28;20202;-80
2022/07/07 05:24:28;;;;;;;1.50;1.40;;;;;;;26.79;42.71;94619.16;4991781;28;20205;-81
2022/07/07 05:26:55;;;;;;;5.68;1.70;;;;;;;26.53;42.37;94622.94;4992027;28;20550;-76
2022/07/07 05:29:22;;;;;;;1.67;1.50;;;;;;;25.71;44.07;94623.78;4992155;28;20201;-80
2022/07/07 05:31:49;;;;;;;2.47;1.58;;;;;;;26.12;42.63;94610.25;4991767;28;20610;-76
2022/07/07 05:34:15;;;;;;;3.25;1.50;;;;;;;25.19;44.83;94620.72;4992151;28;20237;-76
2022/07/07 05:36:42;;;;;;;1.70;1.60;;;;;;;25.75;44.36;94621.72;4990757;28;20641;-80
2022/07/07 05:39:09;;;;;;;1.60;1.50;;;;;;;26.27;43.43;94615.53;4991998;28;20252;-79
2022/07/07 05:41:37;;;;;;;1.80;1.60;;;;;;;26.41;42.98;94620.81;4991865;28;20280;-81
2022/07/07 05:44:04;;;;;;;2.20;1.83;;;;;;;27.54;41.17;94620.16;4992007;28;20205;-79
2022/07/07 05:46:31;;;;;;;2.38;1.55;;;;;;;28.93;38.70;94617.84;4991566;28;20612;-77
2022/07/07 05:48:58;;;;;;;2.03;1.83;;;;;;;29.32;37.93;94622.16;4991335;28;20202;-78
2022/07/07 05:51:24;;;;;;;1.60;1.50;;;;;;;28.41;39.26;94628.56;4991099;28;20734;-74
2022/07/07 05:53:51;;;;;;;1.83;1.50;;;;;;;26.88;41.67;94630.47;4991883;28;20276;-77
2022/07/07 05:56:18;;;;;;;2.20;1.63;;;;;;;27.07;42.23;94633.63;4991811;28;20237;-76
2022/07/07 05:58:46;;;;;;;1.70;1.60;;;;;;;26.95;41.34;94634.31;4992156;28;20253;-78
2022/07/07 06:01:13;;;;;;;1.67;1.58;;;;;;;28.06;40.40;94633.91;4991338;28;20213;-79
2022/07/07 06:03:40;;;;;;;2.00;1.80;;;;;;;28.20;39.90;94630.75;4991484;28;20205;-76
2022/07/07 06:06:07;;;;;;;2.35;1.65;;;;;;;30.04;37.43;94618.53;4991793;28;20201;-78
2022/07/07 06:08:34;;;;;;;1.75;1.65;;;;;;;29.30;38.33;94632.19;4991381;28;20267;-80
2022/07/07 06:11:01;;;;;;;2.08;1.58;;;;;;;28.27;38.73;94636.13;4978656;28;20201;-75
2022/07/07 06:13:27;;;;;;;2.05;1.52;;;;;;;28.36;40.24;94643.03;4991941;28;20209;-78
2022/07/07 06:15:56;;;;;;;2.88;2.08;;;;;;;27.50;41.50;94650.84;4991611;28;20237;-80
2022/07/07 06:18:23;;;;;;;2.95;1.92;;;;;;;27.75;40.44;94655.03;4991581;28;20226;-81
2022/07/07 06:20:50;;;;;;;1.98;1.55;;;;;;;27.71;41.64;94649.56;4991224;28;20201;-78
2022/07/07 06:23:17;;;;;;;1.77;1.60;;;;;;;27.26;41.50;94660.59;4991130;28;20248;-77
2022/07/07 06:25:45;;;;;;;1.77;1.67;;;;;;;29.24;38.67;94640.38;4991467;28;20218;-81
2022/07/07 06:28:12;;;;;;;2.38;1.63;;;;;;;28.90;38.75;94637.47;4991460;28;20212;-78
2022/07/07 06:30:39;;;;;;;2.33;1.80;;;;;;;27.91;40.63;94652.22;4991874;28;20201;-78
2022/07/07 06:33:08;;;;;;;1.52;1.40;;;;;;;27.12;41.26;94663.72;4990952;28;20775;-76
2022/07/07 06:35:34;;;;;;;3.80;1.92;;;;;;;26.70;42.72;94660.66;4991271;28;20324;-78
2022/07/07 06:38:01;;;;;;;2.30;1.77;;;;;;;26.98;42.11;94652.94;4991300;28;20257;-78
2022/07/07 06:40:28;;;;;;;2.00;1.80;;;;;;;28.03;39.85;94654.25;4991321;28;20248;-79
2022/07/07 06:42:55;;;;;;;1.92;1.60;;;;;;;27.35;40.48;94655.22;4991391;28;20688;-75
2022/07/07 06:45:23;;;;;;;2.20;1.90;;;;;;;26.29;42.65;94661.16;4991254;28;20281;-77
2022/07/07 06:47:50;;;;;;;1.90;1.70;;;;;;;26.79;42.28;94651.72;4993213;28;20209;-74
2022/07/07 06:50:18;;;;;;;4.07;1.70;;;;;;;26.45;43.28;94649.31;4994646;28;20279;-79
2022/07/07 06:52:45;;;;;;;2.58;2.05;;;;;;;27.02;41.20;94651.66;4994407;28;20288;-77
2022/07/07 06:55:12;;;;;;;1.45;1.35;;;;;;;26.62;42.21;94659.28;4994685;28;20202;-75
2022/07/07 06:57:39;;;;;;;2.10;1.75;;;;;;;25.93;42.94;94669.38;4995016;28;20209;-77
2022/07/07 07:00:08;;;;;;;1.73;1.48;;;;;;;26.02;42.53;94661.25;4995211;28;20301;-80
2022/07/07 07:02:41;;;;;;;1.73;1.52;;;;;;;26.23;42.69;94659.28;4994570;28;20656;-77
2022/07/07 07:05:08;;;;;;;3.15;1.67;;;;;;;26.07;43.49;94663.53;4994846;28;20204;-74
2022/07/07 07:07:36;;;;;;;2.25;1.52;;;;;;;26.69;42.42;94659.09;4994334;28;20209;-78
2022/07/07 07:10:03;;;;;;;3.03;1.80;;;;;;;27.81;40.34;94656.84;4994708;28;20264;-76
2022/07/07 07:12:30;;;;;;;1.95;1.75;;;;;;;28.35;40.65;94649.84;4994258;28;20208;-79
2022/07/07 07:14:57;;;;;;;1.85;1.52;;;;;;;27.57;41.07;94652.72;4994820;28;20273;-78
2022/07/07 07:17:24;;;;;;;2.78;1.73;;;;;;;27.88;39.78;94647.53;4994202;28;20656;-80
2022/07/07 07:19:51;;;;;;;1.70;1.60;;;;;;;27.73;41.23;94657.50;4994846;28;20303;-82
2022/07/07 07:22:18;;;;;;;3.35;2.00;;;;;;;27.75;39.50;94649.47;4994106;28;20210;-79
2022/07/07 07:24:46;;;;;;;1.92;1.50;;;;;;;27.43;41.02;94653.03;4994137;28;20210;-78
2022/07/07 07:27:13;;;;;;;1.63;1.50;;;;;;;27.86;39.92;94661.13;4994332;28;20331;-76
2022/07/07 07:29:40;;;;;;;2.50;1.90;;;;;;;27.46;41.59;94646.63;4994612;28;20198;-80
2022/07/07 07:32:08;;;;;;;2.38;1.45;;;;;;;28.62;38.93;94644.66;4994187;28;20202;-75
2022/07/07 07:34:35;;;;;;;4.00;1.70;;;;;;;27.02;41.26;94656.41;4994302;28;20198;-79
2022/07/07 07:37:01;;;;;;;2.20;1.70;;;;;;;27.28;41.02;94647.03;4994310;28;20252;-81
2022/07/07 07:39:28;;;;;;;1.90;1.70;;;;;;;27.57;41.66;94656.28;4994286;28;20279;-82
2022/07/07 07:41:57;;;;;;;2.53;1.77;;;;;;;27.55;41.53;94644.78;4994139;28;20212;-78
2022/07/07 07:47:05;;;;;;;1.70;1.60;;;;;;;29.60;38.51;94634.41;4992610;28;20205;-80
2022/07/07 07:49:32;;;;;;;2.03;1.52;;;;;;;29.45;38.22;94638.91;4994042;28;20322;-77
2022/07/07 07:51:58;;;;;;;1.85;1.70;;;;;;;29.04;38.21;94633.44;4993883;28;20283;-79
2022/07/07 07:54:25;;;;;;;2.28;1.77;;;;;;;27.46;39.95;94649.41;4993199;28;20731;-79
2022/07/07 07:56:52;;;;;;;2.53;1.73;;;;;;;27.52;40.48;94648.41;4993654;28;20234;-78
2022/07/07 07:59:20;;;;;;;2.15;1.58;;;;;;;26.74;41.27;94650.25;4992877;28;20279;-73
2022/07/07 08:01:47;;;;;;;2.40;1.58;;;;;;;26.51;42.45;94653.16;4993521;28;20205;-81
2022/07/07 08:04:14;;;;;;;2.25;1.92;;;;;;;27.25;41.78;94656.25;4994146;28;20221;-78
2022/07/07 08:06:41;;;;;;;2.17;1.60;;;;;;;27.89;40.29;94649.88;4993515;28;20268;-76
2022/07/07 08:09:08;;;;;;;1.70;1.60;;;;;;;27.97;40.72;94655.25;4993832;28;20205;-83
2022/07/07 08:11:34;;;;;;;2.38;1.80;;;;;;;28.35;38.13;94647.06;4993738;28;20209;-77
2022/07/07 08:14:01;;;;;;;1.60;1.50;;;;;;;27.90;38.91;94650.66;4993486;28;20269;-77
2022/07/07 08:16:29;;;;;;;2.08;1.52;;;;;;;28.50;38.68;94654.56;4993231;28;20255;-79
2022/07/07 08:18:56;;;;;;;1.42;1.33;;;;;;;28.51;38.32;94653.34;4993141;28;20212;-79
2022/07/07 08:21:23;;;;;;;1.98;1.75;;;;;;;28.87;37.42;94655.88;4993115;28;20628;-76
2022/07/07 08:23:50;;;;;;;1.70;1.60;;;;;;;28.29;37.33;94649.63;4992944;28;20213;-78
2022/07/07 08:26:17;;;;;;;6.88;2.13;;;;;;;27.22;39.56;94662.69;4993061;28;20205;-77
2022/07/07 08:28:44;;;;;;;2.38;1.90;;;;;;;27.69;38.29;94654.78;4993104;28;20205;-78
2022/07/07 08:31:10;;;;;;;2.80;1.50;;;;;;;29.42;37.24;94645.38;4993478;28;20680;-79
2022/07/07 08:33:39;;;;;;;1.60;1.50;;;;;;;29.22;37.41;94644.84;4992929;28;20292;-75
2022/07/07 08:36:06;;;;;;;2.42;1.65;;;;;;;27.73;37.06;94657.50;4992327;28;20309;-76
2022/07/07 08:38:33;;;;;;;1.48;1.35;;;;;;;27.72;38.64;94667.06;4992748;28;20272;-78
2022/07/07 08:41:00;;;;;;;1.75;1.30;;;;;;;26.13;40.81;94672.94;4993199;28;20205;-78
2022/07/07 08:43:27;;;;;;;1.88;1.60;;;;;;;25.18;43.09;94675.38;4992735;28;20601;-77
2022/07/07 08:45:54;;;;;;;1.65;1.55;;;;;;;26.22;41.39;94666.81;4992937;28;20256;-78
2022/07/07 08:48:22;;;;;;;2.15;1.70;;;;;;;27.67;40.24;94660.00;4992666;28;20212;-77
2022/07/07 08:50:50;;;;;;;1.80;1.70;;;;;;;28.17;38.63;94653.09;4992559;28;20209;-77
2022/07/07 08:53:19;;;;;;;1.80;1.42;;;;;;;27.87;38.91;94663.47;4992522;28;20198;-82
2022/07/07 08:55:48;;;;;;;1.92;1.50;;;;;;;28.30;38.76;94649.16;4992826;28;20205;-76
2022/07/07 08:58:18;;;;;;;2.30;1.67;;;;;;;27.33;41.71;94660.44;4992298;28;20202;-79
2022/07/07 09:00:45;;;;;;;1.83;1.73;;;;;;;27.45;40.67;94664.53;4992825;28;20206;-75
2022/07/07 09:03:12;;;;;;;1.65;1.55;;;;;;;27.51;40.30;94657.19;4992744;28;20202;-79
2022/07/07 09:05:39;;;;;;;1.77;1.60;;;;;;;28.31;38.73;94647.16;4992589;28;20264;-80
2022/07/07 09:08:19;;;;;;;1.52;1.42;;;;;;;27.24;39.67;94643.56;4992169;28;20263;-77
2022/07/07 09:10:47;;;;;;;2.53;1.80;;;;;;;28.44;38.14;94645.16;4991906;28;20197;-79
2022/07/07 09:13:25;;;;;;;1.80;1.70;;;;;;;28.21;39.62;94649.03;4992190;28;20316;-80
2022/07/07 09:15:53;;;;;;;2.72;1.73;;;;;;;27.33;41.49;94652.09;4992172;28;20201;-79
2022/07/07 09:18:34;;;;;;;2.75;1.90;;;;;;;27.71;40.00;94644.00;4992350;28;20265;-79
2022/07/07 09:21:03;;;;;;;2.15;1.70;;;;;;;28.04;40.03;94639.13;4980805;28;20688;-81
2022/07/07 09:23:32;;;;;;;1.90;1.70;;;;;;;27.46;39.68;94641.06;4992142;28;20693;-79
2022/07/07 09:25:59;;;;;;;3.17;1.70;;;;;;;27.72;40.11;94644.78;4992291;28;20304;-78
2022/07/07 09:28:26;;;;;;;1.65;1.55;;;;;;;27.99;39.76;94648.03;4991769;28;20606;-77
2022/07/07 09:30:54;;;;;;;2.00;1.80;;;;;;;27.88;39.74;94651.06;4992454;28;20260;-79
2022/07/07 09:33:23;;;;;;;1.75;1.65;;;;;;;28.11;39.30;94650.06;4991857;28;20241;-78
2022/07/07 09:38:40;;;;;;;2.08;1.65;;;;;;;28.79;39.79;94643.38;4978881;28;20196;-76
2022/07/07 09:41:10;;;;;;;1.52;1.42;;;;;;;29.33;38.73;94642.47;4991241;28;20656;-79
2022/07/07 09:43:38;;;;;;;1.73;1.63;;;;;;;29.49;38.25;94634.00;4992155;28;20197;-77
2022/07/07 09:46:17;;;;;;;2.15;1.95;;;;;;;30.05;36.66;94624.91;4991775;28;20209;-77
2022/07/07 09:48:47;;;;;;;1.85;1.75;;;;;;;29.60;37.19;94631.63;4991980;28;20867;-79
2022/07/07 09:51:22;;;;;;;2.33;1.83;;;;;;;28.37;38.74;94639.03;4991990;28;20205;-80
2022/07/07 09:54:02;;;;;;;2.50;1.83;;;;;;;28.20;38.95;94655.81;4991752;28;20581;-79
2022/07/07 09:56:30;;;;;;;2.80;2.00;;;;;;;28.88;37.99;94635.13;4991464;28;20225;-78
2022/07/07 09:58:58;;;;;;;2.90;1.98;;;;;;;29.07;37.62;94632.56;4991048;28;20219;-79
2022/07/07 10:01:26;;;;;;;2.88;2.15;;;;;;;29.08;38.62;94634.13;4991615;28;20210;-79
2022/07/07 10:03:57;;;;;;;1.50;1.40;;;;;;;27.82;40.39;94643.72;4991787;28;20202;-79
2022/07/07 10:06:25;;;;;;;2.03;1.90;;;;;;;27.67;39.90;94639.72;4991550;28;20623;-77
2022/07/07 10:08:58;;;;;;;3.00;1.80;;;;;;;28.14;40.38;94643.63;4991533;28;20206;-78
2022/07/07 10:11:33;;;;;;;3.05;1.90;;;;;;;28.22;38.61;94644.22;4991942;28;20300;-78
2022/07/07 10:14:08;;;;;;;1.90;1.80;;;;;;;29.48;36.69;94621.28;4991495;28;20807;-79
2022/07/07 10:16:36;;;;;;;2.03;1.70;;;;;;;30.04;37.54;94623.34;4991381;28;20228;-79
2022/07/07 10:19:03;;;;;;;2.60;2.00;;;;;;;30.23;36.47;94613.84;4991375;28;20220;-77
2022/07/07 10:21:30;;;;;;;2.38;1.83;;;;;;;30.49;36.32;94608.91;4991508;28;20275;-77
2022/07/07 10:23:59;;;;;;;1.75;1.65;;;;;;;29.29;37.45;94608.31;4995351;28;20248;-81
2022/07/07 10:26:36;;;;;;;2.97;2.00;;;;;;;28.63;40.53;94612.75;4995673;28;20205;-77
2022/07/07 10:29:04;;;;;;;1.90;1.60;;;;;;;28.02;41.15;94619.28;4982412;28;20296;-75
2022/07/07 10:31:31;;;;;;;1.83;1.70;;;;;;;28.02;40.45;94627.63;4995504;28;20574;-77
2022/07/07 10:34:01;;;;;;;1.75;1.60;;;;;;;27.99;40.05;94628.53;4994857;28;20241;-74
2022/07/07 10:36:48;;;;;;;2.05;1.83;;;;;;;28.44;39.37;94613.72;4995236;28;20247;-77
2022/07/07 10:39:17;;;;;;;1.90;1.70;;;;;;;29.42;39.97;94606.31;4995019;28;20209;-77
2022/07/07 10:41:55;;;;;;;1.85;1.73;;;;;;;29.84;38.03;94597.69;4995035;28;20201;-77
2022/07/07 10:44:23;;;;;;;2.25;1.90;;;;;;;30.47;37.86;94599.44;4989472;28;20240;-81
2022/07/07 10:46:59;;;;;;;3.42;1.80;;;;;;;30.01;37.38;94607.50;4994900;28;20209;-76
2022/07/07 10:49:38;;;;;;;1.73;1.60;;;;;;;28.55;39.07;94601.06;4994899;28;20337;-76
2022/07/07 10:52:11;;;;;;;1.70;1.60;;;;;;;27.67;40.21;94603.53;4994615;28;20238;-75
2022/07/07 10:54:41;;;;;;;2.03;1.80;;;;;;;27.20;40.56;94609.47;4995246;28;20193;-76
2022/07/07 10:57:16;;;;;;;1.70;1.60;;;;;;;28.15;39.33;94586.69;4994887;28;20218;-77
2022/07/07 11:00:20;;;;;;;1.95;1.50;;;;;;;28.59;39.63;94600.94;4994357;28;20201;-78
2022/07/07 11:02:50;;;;;;;1.85;1.75;;;;;;;29.08;39.00;94592.28;4994962;28;20197;-80
2022/07/07 11:05:34;;;;;;;2.20;1.67;;;;;;;29.44;39.76;94584.31;4994701;28;20209;-79
2022/07/07 11:08:18;;;;;;;2.63;2.08;;;;;;;29.54;38.96;94588.75;4995032;28;20194;-79
2022/07/07 11:10:56;;;;;;;1.67;1.58;;;;;;;28.88;39.45;94590.50;4994615;28;20210;-75
2022/07/07 11:13:31;;;;;;;2.35;1.95;;;;;;;28.46;40.51;94586.19;4994913;28;20259;-79
2022/07/07 11:16:16;;;;;;;3.25;1.90;;;;;;;27.28;41.76;94587.84;4975372;28;20194;-78
2022/07/07 11:18:44;;;;;;;2.17;1.90;;;;;;;26.39;43.75;94589.91;4990997;28;20241;-78
2022/07/07 11:21:11;;;;;;;1.73;1.50;;;;;;;26.37;43.91;94581.22;4994602;28;20828;-78
2022/07/07 11:23:55;;;;;;;1.67;1.55;;;;;;;26.79;43.92;94585.78;4994423;28;20393;-77
2022/07/07 11:26:25;;;;;;;2.17;1.90;;;;;;;27.38;41.49;94570.88;4994920;28;20193;-79
2022/07/07 11:28:53;;;;;;;2.10;1.80;;;;;;;28.14;40.16;94560.06;4994702;28;20205;-77
2022/07/07 11:31:21;;;;;;;1.52;1.42;;;;;;;27.76;40.04;94556.34;4993506;28;20626;-76
2022/07/07 11:33:52;;;;;;;2.47;1.60;;;;;;;27.76;41.15;94561.94;4993917;28;20238;-76
2022/07/07 11:36:21;;;;;;;2.42;2.08;;;;;;;27.42;42.54;94559.66;4993501;28;20624;-76
2022/07/07 11:38:49;;;;;;;2.05;1.70;;;;;;;27.86;43.69;94558.09;4993437;28;20229;-76
2022/07/07 11:41:17;;;;;;;2.50;2.13;;;;;;;27.44;42.41;94557.22;4993463;28;20288;-77
2022/07/07 11:43:54;;;;;;;2.47;1.70;;;;;;;27.84;41.90;94550.16;4993005;28;20205;-78
2022/07/07 11:46:23;;;;;;;2.30;1.85;;;;;;;28.63;40.82;94546.63;4993816;28;20569;-78